sensor_id;sensor_type;location;lat;lon;timestamp;pressure;altitude;pressure_sealevel;temperature;humidity
71559;BME280;59382;43.852;25.952;2023-05-16T00:00:55;100850.34;;;18.85;43.47
71559;BME280;59382;43.852;25.952;2023-05-16T00:03:22;100830.06;;;18.76;43.55
71559;BME280;59382;43.852;25.952;2023-05-16T00:05:48;100823.81;;;18.85;43.40
71559;BME280;59382;43.852;25.952;2023-05-16T00:08:16;100826.28;;;18.87;43.15
71559;BME280;59382;43.852;25.952;2023-05-16T00:10:42;100827.44;;;18.91;43.01
71559;BME280;59382;43.852;25.952;2023-05-16T00:13:08;100846.06;;;18.99;43.09
71559;BME280;59382;43.852;25.952;2023-05-16T00:15:34;100831.28;;;18.95;42.93
71559;BME280;59382;43.852;25.952;2023-05-16T00:18:00;100836.19;;;18.93;43.05
71559;BME280;59382;43.852;25.952;2023-05-16T00:20:26;100835.66;;;18.96;42.97
71559;BME280;59382;43.852;25.952;2023-05-16T00:22:52;100828.47;;;18.85;42.89
71559;BME280;59382;43.852;25.952;2023-05-16T00:25:18;100831.22;;;18.85;43.04
71559;BME280;59382;43.852;25.952;2023-05-16T00:27:44;100835.28;;;18.82;43.21
71559;BME280;59382;43.852;25.952;2023-05-16T00:30:10;100820.16;;;18.70;43.12
71559;BME280;59382;43.852;25.952;2023-05-16T00:32:36;100819.06;;;18.66;43.11
71559;BME280;59382;43.852;25.952;2023-05-16T00:35:02;100825.31;;;18.66;43.30
71559;BME280;59382;43.852;25.952;2023-05-16T00:37:27;100827.19;;;18.61;43.46
71559;BME280;59382;43.852;25.952;2023-05-16T00:39:53;100843.59;;;18.61;43.40
71559;BME280;59382;43.852;25.952;2023-05-16T00:42:19;100858.34;;;18.60;43.46
71559;BME280;59382;43.852;25.952;2023-05-16T00:44:46;100859.47;;;18.64;43.41
71559;BME280;59382;43.852;25.952;2023-05-16T00:47:14;100857.25;;;18.61;43.42
71559;BME280;59382;43.852;25.952;2023-05-16T00:49:40;100840.81;;;18.56;43.37
71559;BME280;59382;43.852;25.952;2023-05-16T00:52:06;100850.97;;;18.60;43.27
71559;BME280;59382;43.852;25.952;2023-05-16T00:54:32;100833.38;;;18.51;43.34
71559;BME280;59382;43.852;25.952;2023-05-16T00:56:58;100854.59;;;18.71;43.05
71559;BME280;59382;43.852;25.952;2023-05-16T00:59:24;100836.22;;;18.61;42.94
71559;BME280;59382;43.852;25.952;2023-05-16T01:01:51;100846.06;;;18.62;43.22
71559;BME280;59382;43.852;25.952;2023-05-16T01:04:17;100845.75;;;18.59;43.17
71559;BME280;59382;43.852;25.952;2023-05-16T01:06:43;100843.47;;;18.46;43.40
71559;BME280;59382;43.852;25.952;2023-05-16T01:09:09;100864.53;;;18.50;43.39
71559;BME280;59382;43.852;25.952;2023-05-16T01:11:51;100866.97;;;18.47;43.37
71559;BME280;59382;43.852;25.952;2023-05-16T01:20:50;100834.00;;;18.32;43.31
71559;BME280;59382;43.852;25.952;2023-05-16T01:23:37;100852.19;;;18.43;43.22
71559;BME280;59382;43.852;25.952;2023-05-16T01:26:22;100870.22;;;18.44;43.20
71559;BME280;59382;43.852;25.952;2023-05-16T01:28:50;100827.94;;;18.25;43.20
71559;BME280;59382;43.852;25.952;2023-05-16T01:31:16;100858.03;;;18.30;43.31
71559;BME280;59382;43.852;25.952;2023-05-16T01:33:42;100871.72;;;18.35;43.31
71559;BME280;59382;43.852;25.952;2023-05-16T01:39:19;100861.22;;;18.22;43.38
71559;BME280;59382;43.852;25.952;2023-05-16T01:41:54;100850.81;;;18.19;43.47
71559;BME280;59382;43.852;25.952;2023-05-16T01:44:30;100809.28;;;17.90;43.45
71559;BME280;59382;43.852;25.952;2023-05-16T01:47:00;100845.88;;;18.16;43.53
71559;BME280;59382;43.852;25.952;2023-05-16T01:49:42;100830.22;;;18.06;43.53
71559;BME280;59382;43.852;25.952;2023-05-16T01:52:15;100815.97;;;18.04;43.63
71559;BME280;59382;43.852;25.952;2023-05-16T01:54:45;100827.47;;;18.06;43.75
71559;BME280;59382;43.852;25.952;2023-05-16T01:57:12;100816.19;;;17.98;44.02
71559;BME280;59382;43.852;25.952;2023-05-16T01:59:39;100818.88;;;17.93;44.04
71559;BME280;59382;43.852;25.952;2023-05-16T02:02:07;100820.50;;;17.94;44.18
71559;BME280;59382;43.852;25.952;2023-05-16T02:04:32;100822.16;;;17.95;44.44
71559;BME280;59382;43.852;25.952;2023-05-16T02:06:59;100809.78;;;17.87;44.42
71559;BME280;59382;43.852;25.952;2023-05-16T02:09:25;100819.38;;;17.90;44.56
71559;BME280;59382;43.852;25.952;2023-05-16T02:11:50;100826.41;;;17.86;44.50
71559;BME280;59382;43.852;25.952;2023-05-16T02:14:16;100823.69;;;17.86;44.85
71559;BME280;59382;43.852;25.952;2023-05-16T02:16:41;100813.59;;;17.86;44.92
71559;BME280;59382;43.852;25.952;2023-05-16T02:19:07;100808.97;;;17.87;44.71
71559;BME280;59382;43.852;25.952;2023-05-16T02:21:33;100815.56;;;17.91;44.83
71559;BME280;59382;43.852;25.952;2023-05-16T02:23:58;100824.09;;;17.99;44.76
71559;BME280;59382;43.852;25.952;2023-05-16T02:26:24;100798.16;;;17.97;44.73
71559;BME280;59382;43.852;25.952;2023-05-16T02:28:49;100786.13;;;17.93;44.77
71559;BME280;59382;43.852;25.952;2023-05-16T02:31:29;100766.63;;;17.84;44.98
71559;BME280;59382;43.852;25.952;2023-05-16T02:33:56;100803.28;;;17.93;44.99
71559;BME280;59382;43.852;25.952;2023-05-16T02:36:22;100820.50;;;17.94;45.02
71559;BME280;59382;43.852;25.952;2023-05-16T02:38:47;100823.81;;;17.96;44.96
71559;BME280;59382;43.852;25.952;2023-05-16T02:41:13;100810.44;;;17.94;44.99
71559;BME280;59382;43.852;25.952;2023-05-16T02:43:38;100809.59;;;17.94;45.06
71559;BME280;59382;43.852;25.952;2023-05-16T02:46:18;100812.91;;;17.96;45.09
71559;BME280;59382;43.852;25.952;2023-05-16T02:48:44;100817.28;;;17.97;44.88
71559;BME280;59382;43.852;25.952;2023-05-16T02:51:09;100798.16;;;17.70;45.24
71559;BME280;59382;43.852;25.952;2023-05-16T02:53:35;100823.69;;;17.86;45.20
71559;BME280;59382;43.852;25.952;2023-05-16T02:56:00;100825.66;;;17.90;45.46
71559;BME280;59382;43.852;25.952;2023-05-16T02:58:26;100807.78;;;17.78;45.69
71559;BME280;59382;43.852;25.952;2023-05-16T03:00:51;100815.47;;;17.81;45.78
71559;BME280;59382;43.852;25.952;2023-05-16T03:03:17;100811.03;;;17.75;46.03
71559;BME280;59382;43.852;25.952;2023-05-16T03:05:42;100800.09;;;17.75;46.21
71559;BME280;59382;43.852;25.952;2023-05-16T03:08:08;100802.25;;;17.73;46.21
71559;BME280;59382;43.852;25.952;2023-05-16T03:10:34;100809.63;;;17.72;46.43
71559;BME280;59382;43.852;25.952;2023-05-16T03:12:59;100807.44;;;17.69;46.41
71559;BME280;59382;43.852;25.952;2023-05-16T03:15:25;100796.69;;;17.63;46.58
71559;BME280;59382;43.852;25.952;2023-05-16T03:17:50;100790.63;;;17.55;46.84
71559;BME280;59382;43.852;25.952;2023-05-16T03:20:16;100788.13;;;17.54;46.95
71559;BME280;59382;43.852;25.952;2023-05-16T03:22:42;100804.81;;;17.57;47.01
71559;BME280;59382;43.852;25.952;2023-05-16T03:25:09;100791.63;;;17.49;47.03
71559;BME280;59382;43.852;25.952;2023-05-16T03:27:35;100815.72;;;17.57;47.18
71559;BME280;59382;43.852;25.952;2023-05-16T03:30:00;100811.94;;;17.58;47.27
71559;BME280;59382;43.852;25.952;2023-05-16T03:32:26;100806.41;;;17.53;47.19
71559;BME280;59382;43.852;25.952;2023-05-16T03:34:52;100819.34;;;17.63;47.08
71559;BME280;59382;43.852;25.952;2023-05-16T03:37:17;100765.19;;;17.33;47.12
71559;BME280;59382;43.852;25.952;2023-05-16T03:39:43;100808.44;;;17.63;47.20
71559;BME280;59382;43.852;25.952;2023-05-16T03:42:08;100812.03;;;17.69;47.20
71559;BME280;59382;43.852;25.952;2023-05-16T03:44:34;100810.41;;;17.68;47.31
71559;BME280;59382;43.852;25.952;2023-05-16T03:46:59;100810.41;;;17.68;47.31
71559;BME280;59382;43.852;25.952;2023-05-16T03:49:26;100795.56;;;17.58;47.38
71559;BME280;59382;43.852;25.952;2023-05-16T03:51:54;100804.88;;;17.63;47.29
71559;BME280;59382;43.852;25.952;2023-05-16T03:54:21;100793.63;;;17.59;47.54
71559;BME280;59382;43.852;25.952;2023-05-16T03:56:46;100780.25;;;17.57;47.54
71559;BME280;59382;43.852;25.952;2023-05-16T03:59:12;100809.06;;;17.70;47.78
71559;BME280;59382;43.852;25.952;2023-05-16T04:01:37;100794.03;;;17.68;47.76
71559;BME280;59382;43.852;25.952;2023-05-16T04:04:03;100788.44;;;17.57;47.66
71559;BME280;59382;43.852;25.952;2023-05-16T04:06:28;100798.44;;;17.74;47.95
71559;BME280;59382;43.852;25.952;2023-05-16T04:08:54;100801.56;;;17.82;47.94
71559;BME280;59382;43.852;25.952;2023-05-16T04:11:20;100807.31;;;17.86;47.76
71559;BME280;59382;43.852;25.952;2023-05-16T04:13:46;100800.28;;;17.90;47.73
71559;BME280;59382;43.852;25.952;2023-05-16T04:16:11;100801.41;;;17.94;47.82
71559;BME280;59382;43.852;25.952;2023-05-16T04:18:37;100803.09;;;18.00;47.74
71559;BME280;59382;43.852;25.952;2023-05-16T04:21:03;100791.59;;;17.98;47.74
71559;BME280;59382;43.852;25.952;2023-05-16T04:23:28;100809.19;;;18.07;47.70
71559;BME280;59382;43.852;25.952;2023-05-16T04:25:54;100802.06;;;18.06;47.80
71559;BME280;59382;43.852;25.952;2023-05-16T04:28:21;100813.66;;;18.18;47.69
71559;BME280;59382;43.852;25.952;2023-05-16T04:30:47;100817.53;;;18.22;47.51
71559;BME280;59382;43.852;25.952;2023-05-16T04:33:12;100804.44;;;18.24;47.45
71559;BME280;59382;43.852;25.952;2023-05-16T04:35:38;100813.81;;;18.33;47.56
71559;BME280;59382;43.852;25.952;2023-05-16T04:38:04;100808.97;;;18.40;47.73
71559;BME280;59382;43.852;25.952;2023-05-16T04:40:29;100814.25;;;18.46;47.64
71559;BME280;59382;43.852;25.952;2023-05-16T04:42:55;100803.31;;;18.46;47.49
71559;BME280;59382;43.852;25.952;2023-05-16T04:45:21;100794.53;;;18.44;47.78
71559;BME280;59382;43.852;25.952;2023-05-16T04:47:46;100796.50;;;18.49;47.55
71559;BME280;59382;43.852;25.952;2023-05-16T04:50:12;100778.34;;;18.38;47.62
71559;BME280;59382;43.852;25.952;2023-05-16T04:52:39;100781.91;;;18.38;47.75
71559;BME280;59382;43.852;25.952;2023-05-16T04:55:05;100792.59;;;18.40;47.91
71559;BME280;59382;43.852;25.952;2023-05-16T04:57:30;100801.44;;;18.52;47.98
71559;BME280;59382;43.852;25.952;2023-05-16T04:59:56;100807.47;;;18.54;48.10
71559;BME280;59382;43.852;25.952;2023-05-16T05:02:21;100803.66;;;18.55;48.10
71559;BME280;59382;43.852;25.952;2023-05-16T05:04:47;100802.56;;;18.56;48.08
71559;BME280;59382;43.852;25.952;2023-05-16T05:07:12;100797.91;;;18.56;47.99
71559;BME280;59382;43.852;25.952;2023-05-16T05:09:38;100791.63;;;18.56;48.17
71559;BME280;59382;43.852;25.952;2023-05-16T05:12:04;100804.63;;;18.75;48.25
71559;BME280;59382;43.852;25.952;2023-05-16T05:14:30;100812.06;;;18.85;48.17
71559;BME280;59382;43.852;25.952;2023-05-16T05:16:55;100798.38;;;18.80;48.03
71559;BME280;59382;43.852;25.952;2023-05-16T05:19:21;100811.81;;;18.91;48.04
71559;BME280;59382;43.852;25.952;2023-05-16T05:21:47;100802.25;;;18.89;48.22
71559;BME280;59382;43.852;25.952;2023-05-16T05:24:12;100805.88;;;18.99;47.99
71559;BME280;59382;43.852;25.952;2023-05-16T05:26:38;100829.25;;;19.22;48.06
71559;BME280;59382;43.852;25.952;2023-05-16T05:29:03;100820.88;;;19.33;47.75
71559;BME280;59382;43.852;25.952;2023-05-16T05:31:29;100807.75;;;19.35;47.67
71559;BME280;59382;43.852;25.952;2023-05-16T05:34:07;100809.50;;;19.57;47.83
71559;BME280;59382;43.852;25.952;2023-05-16T05:36:33;100810.88;;;19.69;47.39
71559;BME280;59382;43.852;25.952;2023-05-16T05:38:58;100803.22;;;19.66;47.47
71559;BME280;59382;43.852;25.952;2023-05-16T05:41:24;100795.84;;;19.72;47.36
71559;BME280;59382;43.852;25.952;2023-05-16T05:43:50;100803.81;;;19.88;47.28
71559;BME280;59382;43.852;25.952;2023-05-16T05:46:16;100809.88;;;20.00;47.06
71559;BME280;59382;43.852;25.952;2023-05-16T05:48:41;100810.44;;;20.07;46.89
71559;BME280;59382;43.852;25.952;2023-05-16T05:51:07;100817.56;;;20.08;46.92
71559;BME280;59382;43.852;25.952;2023-05-16T05:53:33;100805.53;;;20.04;46.89
71559;BME280;59382;43.852;25.952;2023-05-16T05:55:59;100825.81;;;20.13;46.84
71559;BME280;59382;43.852;25.952;2023-05-16T05:58:27;100801.13;;;19.98;46.91
71559;BME280;59382;43.852;25.952;2023-05-16T06:00:53;100797.00;;;19.96;46.88
71559;BME280;59382;43.852;25.952;2023-05-16T06:03:18;100786.56;;;19.83;47.19
71559;BME280;59382;43.852;25.952;2023-05-16T06:05:45;100805.47;;;19.94;47.24
71559;BME280;59382;43.852;25.952;2023-05-16T06:08:10;100807.13;;;20.00;47.08
71559;BME280;59382;43.852;25.952;2023-05-16T06:10:36;100814.34;;;20.26;46.99
71559;BME280;59382;43.852;25.952;2023-05-16T06:13:01;100820.94;;;20.40;46.44
71559;BME280;59382;43.852;25.952;2023-05-16T06:15:27;100820.66;;;20.47;46.48
71559;BME280;59382;43.852;25.952;2023-05-16T06:17:52;100803.94;;;20.43;46.38
71559;BME280;59382;43.852;25.952;2023-05-16T06:20:18;100819.81;;;20.56;46.23
71559;BME280;59382;43.852;25.952;2023-05-16T06:22:43;100815.44;;;20.55;45.80
71559;BME280;59382;43.852;25.952;2023-05-16T06:25:09;100821.19;;;20.64;45.95
71559;BME280;59382;43.852;25.952;2023-05-16T06:27:35;100797.91;;;20.56;45.63
71559;BME280;59382;43.852;25.952;2023-05-16T06:30:00;100811.91;;;20.65;46.04
71559;BME280;59382;43.852;25.952;2023-05-16T06:32:26;100809.44;;;20.63;45.92
71559;BME280;59382;43.852;25.952;2023-05-16T06:34:51;100813.25;;;20.62;45.82
71559;BME280;59382;43.852;25.952;2023-05-16T06:37:17;100794.63;;;20.54;45.68
71559;BME280;59382;43.852;25.952;2023-05-16T06:39:43;100821.19;;;20.64;46.17
71559;BME280;59382;43.852;25.952;2023-05-16T06:42:08;100812.16;;;20.63;46.06
71559;BME280;59382;43.852;25.952;2023-05-16T06:44:38;100804.47;;;20.70;45.95
71559;BME280;59382;43.852;25.952;2023-05-16T06:47:07;100809.41;;;20.83;46.00
71559;BME280;59382;43.852;25.952;2023-05-16T06:49:36;100807.47;;;20.94;45.90
71559;BME280;59382;43.852;25.952;2023-05-16T06:52:02;100786.38;;;20.99;45.59
71559;BME280;59382;43.852;25.952;2023-05-16T06:54:28;100781.94;;;21.08;45.68
71559;BME280;59382;43.852;25.952;2023-05-16T06:56:53;100786.03;;;21.16;45.76
71559;BME280;59382;43.852;25.952;2023-05-16T06:59:19;100780.78;;;21.29;45.46
71559;BME280;59382;43.852;25.952;2023-05-16T07:01:45;100785.97;;;21.41;45.43
71559;BME280;59382;43.852;25.952;2023-05-16T07:04:16;100791.41;;;21.46;45.10
71559;BME280;59382;43.852;25.952;2023-05-16T07:06:42;100787.00;;;21.55;45.32
71559;BME280;59382;43.852;25.952;2023-05-16T07:09:07;100793.81;;;21.68;45.45
71559;BME280;59382;43.852;25.952;2023-05-16T07:11:33;100791.59;;;21.70;45.58
71559;BME280;59382;43.852;25.952;2023-05-16T07:13:59;100793.78;;;21.78;45.39
71559;BME280;59382;43.852;25.952;2023-05-16T07:16:24;100804.75;;;21.78;45.44
71559;BME280;59382;43.852;25.952;2023-05-16T07:18:53;100788.28;;;21.78;45.37
71559;BME280;59382;43.852;25.952;2023-05-16T07:21:21;100792.56;;;21.99;45.19
71559;BME280;59382;43.852;25.952;2023-05-16T07:23:46;100797.91;;;22.19;44.71
71559;BME280;59382;43.852;25.952;2023-05-16T07:26:12;100798.91;;;22.33;44.69
71559;BME280;59382;43.852;25.952;2023-05-16T07:28:38;100804.88;;;22.45;44.36
71559;BME280;59382;43.852;25.952;2023-05-16T07:31:03;100781.78;;;22.41;44.32
71559;BME280;59382;43.852;25.952;2023-05-16T07:33:29;100769.09;;;22.50;44.29
71559;BME280;59382;43.852;25.952;2023-05-16T07:35:54;100784.56;;;22.74;43.85
71559;BME280;59382;43.852;25.952;2023-05-16T07:38:20;100795.25;;;22.81;43.90
71559;BME280;59382;43.852;25.952;2023-05-16T07:40:46;100790.31;;;22.78;43.66
71559;BME280;59382;43.852;25.952;2023-05-16T07:43:12;100798.94;;;22.95;43.84
71559;BME280;59382;43.852;25.952;2023-05-16T07:45:39;100789.94;;;23.13;43.09
71559;BME280;59382;43.852;25.952;2023-05-16T07:48:04;100783.09;;;23.10;43.09
71559;BME280;59382;43.852;25.952;2023-05-16T07:50:30;100779.47;;;23.15;43.10
71559;BME280;59382;43.852;25.952;2023-05-16T07:52:55;100787.13;;;23.18;43.15
71559;BME280;59382;43.852;25.952;2023-05-16T07:55:21;100759.28;;;22.96;43.56
71559;BME280;59382;43.852;25.952;2023-05-16T07:57:47;100790.06;;;23.03;43.09
71559;BME280;59382;43.852;25.952;2023-05-16T08:00:13;100792.97;;;22.88;43.58
71559;BME280;59382;43.852;25.952;2023-05-16T08:02:39;100795.41;;;22.89;43.56
71559;BME280;59382;43.852;25.952;2023-05-16T08:05:05;100805.69;;;23.07;43.50
71559;BME280;59382;43.852;25.952;2023-05-16T08:07:31;100785.88;;;23.34;42.99
71559;BME280;59382;43.852;25.952;2023-05-16T08:09:57;100775.19;;;23.51;42.69
71559;BME280;59382;43.852;25.952;2023-05-16T08:12:23;100772.97;;;23.53;42.40
71559;BME280;59382;43.852;25.952;2023-05-16T08:14:51;100800.03;;;23.70;42.16
71559;BME280;59382;43.852;25.952;2023-05-16T08:17:17;100810.53;;;23.86;42.19
71559;BME280;59382;43.852;25.952;2023-05-16T08:19:42;100804.50;;;23.84;42.25
71559;BME280;59382;43.852;25.952;2023-05-16T08:22:08;100813.81;;;23.88;42.18
71559;BME280;59382;43.852;25.952;2023-05-16T08:24:34;100813.13;;;24.01;42.45
71559;BME280;59382;43.852;25.952;2023-05-16T08:27:00;100809.97;;;24.26;41.79
71559;BME280;59382;43.852;25.952;2023-05-16T08:29:25;100822.09;;;24.62;41.45
71559;BME280;59382;43.852;25.952;2023-05-16T08:31:51;100805.72;;;24.84;40.95
71559;BME280;59382;43.852;25.952;2023-05-16T08:34:17;100802.50;;;25.10;40.90
71559;BME280;59382;43.852;25.952;2023-05-16T08:36:42;100797.28;;;25.22;40.76
71559;BME280;59382;43.852;25.952;2023-05-16T08:39:08;100803.31;;;25.24;40.40
71559;BME280;59382;43.852;25.952;2023-05-16T08:41:36;100805.47;;;25.27;40.72
71559;BME280;59382;43.852;25.952;2023-05-16T08:44:02;100771.19;;;25.00;40.68
71559;BME280;59382;43.852;25.952;2023-05-16T08:46:28;100787.75;;;25.00;41.24
71559;BME280;59382;43.852;25.952;2023-05-16T08:48:59;100806.78;;;25.02;41.36
71559;BME280;59382;43.852;25.952;2023-05-16T08:51:27;100777.53;;;24.87;41.67
71559;BME280;59382;43.852;25.952;2023-05-16T08:54:00;100781.53;;;25.09;41.45
71559;BME280;59382;43.852;25.952;2023-05-16T08:56:27;100778.78;;;25.09;41.68
71559;BME280;59382;43.852;25.952;2023-05-16T08:58:54;100797.81;;;25.10;42.11
71559;BME280;59382;43.852;25.952;2023-05-16T09:01:21;100782.44;;;24.90;42.29
71559;BME280;59382;43.852;25.952;2023-05-16T09:03:48;100787.50;;;24.83;42.62
71559;BME280;59382;43.852;25.952;2023-05-16T09:06:15;100788.72;;;24.77;43.03
71559;BME280;59382;43.852;25.952;2023-05-16T09:08:41;100793.22;;;24.73;42.86
71559;BME280;59382;43.852;25.952;2023-05-16T09:11:08;100780.03;;;24.70;43.14
71559;BME280;59382;43.852;25.952;2023-05-16T09:13:34;100781.56;;;24.76;43.22
71559;BME280;59382;43.852;25.952;2023-05-16T09:16:16;100774.94;;;24.91;43.07
71559;BME280;59382;43.852;25.952;2023-05-16T09:18:44;100748.56;;;24.98;42.97
71559;BME280;59382;43.852;25.952;2023-05-16T09:21:11;100762.03;;;25.46;42.49
71559;BME280;59382;43.852;25.952;2023-05-16T09:23:37;100758.13;;;25.60;42.52
71559;BME280;59382;43.852;25.952;2023-05-16T09:26:04;100756.66;;;25.63;42.37
71559;BME280;59382;43.852;25.952;2023-05-16T09:28:32;100743.38;;;25.65;42.54
71559;BME280;59382;43.852;25.952;2023-05-16T09:30:58;100734.16;;;25.56;42.88
71559;BME280;59382;43.852;25.952;2023-05-16T09:33:27;100726.59;;;25.48;42.61
71559;BME280;59382;43.852;25.952;2023-05-16T09:36:03;100723.97;;;25.43;43.12
71559;BME280;59382;43.852;25.952;2023-05-16T09:38:28;100724.16;;;25.46;42.77
71559;BME280;59382;43.852;25.952;2023-05-16T09:40:54;100727.16;;;25.72;42.56
71559;BME280;59382;43.852;25.952;2023-05-16T09:43:24;100722.69;;;26.11;41.87
71559;BME280;59382;43.852;25.952;2023-05-16T09:45:50;100709.09;;;26.45;41.38
71559;BME280;59382;43.852;25.952;2023-05-16T09:48:16;100713.66;;;26.72;41.34
71559;BME280;59382;43.852;25.952;2023-05-16T09:50:47;100717.97;;;26.95;40.30
71559;BME280;59382;43.852;25.952;2023-05-16T09:53:16;100722.97;;;27.15;39.36
71559;BME280;59382;43.852;25.952;2023-05-16T09:55:42;100724.16;;;27.31;39.17
71559;BME280;59382;43.852;25.952;2023-05-16T09:58:07;100713.28;;;27.43;38.62
71559;BME280;59382;43.852;25.952;2023-05-16T10:00:33;100702.53;;;27.50;38.16
71559;BME280;59382;43.852;25.952;2023-05-16T10:03:00;100701.91;;;27.70;37.69
71559;BME280;59382;43.852;25.952;2023-05-16T10:05:26;100689.84;;;27.83;37.03
71559;BME280;59382;43.852;25.952;2023-05-16T10:07:56;100684.63;;;27.90;36.74
71559;BME280;59382;43.852;25.952;2023-05-16T10:10:23;100692.63;;;28.09;36.53
71559;BME280;59382;43.852;25.952;2023-05-16T10:12:53;100689.16;;;28.29;35.82
71559;BME280;59382;43.852;25.952;2023-05-16T10:15:22;100694.06;;;28.40;36.02
71559;BME280;59382;43.852;25.952;2023-05-16T10:17:50;100680.34;;;28.35;35.38
71559;BME280;59382;43.852;25.952;2023-05-16T10:20:19;100685.91;;;28.35;35.46
71559;BME280;59382;43.852;25.952;2023-05-16T10:22:45;100668.78;;;28.25;36.05
71559;BME280;59382;43.852;25.952;2023-05-16T10:27:56;100679.25;;;28.19;36.14
71559;BME280;59382;43.852;25.952;2023-05-16T10:30:23;100677.13;;;28.16;36.31
71559;BME280;59382;43.852;25.952;2023-05-16T10:32:50;100667.94;;;28.24;35.74
71559;BME280;59382;43.852;25.952;2023-05-16T10:35:16;100664.72;;;28.22;36.24
71559;BME280;59382;43.852;25.952;2023-05-16T10:37:42;100670.91;;;28.19;36.12
71559;BME280;59382;43.852;25.952;2023-05-16T10:40:09;100666.03;;;28.16;36.36
71559;BME280;59382;43.852;25.952;2023-05-16T10:42:34;100677.59;;;28.18;36.35
71559;BME280;59382;43.852;25.952;2023-05-16T10:45:16;100659.81;;;28.11;36.41
71559;BME280;59382;43.852;25.952;2023-05-16T10:53:24;100654.78;;;28.04;36.80
71559;BME280;59382;43.852;25.952;2023-05-16T11:01:26;100651.03;;;27.92;36.91
71559;BME280;59382;43.852;25.952;2023-05-16T11:06:45;100644.97;;;27.81;36.79
71559;BME280;59382;43.852;25.952;2023-05-16T11:11:44;100655.28;;;27.89;37.13
71559;BME280;59382;43.852;25.952;2023-05-16T11:14:37;100660.34;;;27.96;36.93
71559;BME280;59382;43.852;25.952;2023-05-16T11:17:09;100652.66;;;28.01;36.93
71559;BME280;59382;43.852;25.952;2023-05-16T11:19:39;100644.03;;;27.94;37.29
71559;BME280;59382;43.852;25.952;2023-05-16T11:25:00;100643.53;;;27.92;36.77
71559;BME280;59382;43.852;25.952;2023-05-16T11:27:28;100635.38;;;27.87;37.06
71559;BME280;59382;43.852;25.952;2023-05-16T11:29:58;100644.69;;;27.91;36.78
71559;BME280;59382;43.852;25.952;2023-05-16T11:32:25;100653.00;;;27.91;37.00
71559;BME280;59382;43.852;25.952;2023-05-16T11:34:51;100650.41;;;27.86;37.15
71559;BME280;59382;43.852;25.952;2023-05-16T11:37:17;100645.16;;;27.85;37.03
71559;BME280;59382;43.852;25.952;2023-05-16T11:39:44;100629.19;;;27.73;36.95
71559;BME280;59382;43.852;25.952;2023-05-16T11:42:10;100634.72;;;27.73;36.99
71559;BME280;59382;43.852;25.952;2023-05-16T11:44:38;100632.28;;;27.72;36.67
71559;BME280;59382;43.852;25.952;2023-05-16T11:47:05;100601.44;;;27.56;36.73
71559;BME280;59382;43.852;25.952;2023-05-16T11:49:30;100617.59;;;27.63;36.68
71559;BME280;59382;43.852;25.952;2023-05-16T11:51:56;100610.41;;;27.53;36.59
71559;BME280;59382;43.852;25.952;2023-05-16T11:54:22;100597.53;;;27.49;36.48
71559;BME280;59382;43.852;25.952;2023-05-16T11:56:49;100614.97;;;27.49;36.70
71559;BME280;59382;43.852;25.952;2023-05-16T11:59:18;100612.88;;;27.46;36.56
71559;BME280;59382;43.852;25.952;2023-05-16T12:01:45;100594.59;;;27.37;36.53
71559;BME280;59382;43.852;25.952;2023-05-16T12:04:14;100615.47;;;27.51;36.66
71559;BME280;59382;43.852;25.952;2023-05-16T12:06:41;100618.25;;;27.51;36.29
71559;BME280;59382;43.852;25.952;2023-05-16T12:09:13;100616.47;;;27.47;35.78
71559;BME280;59382;43.852;25.952;2023-05-16T12:11:43;100635.34;;;27.53;36.23
71559;BME280;59382;43.852;25.952;2023-05-16T12:14:11;100648.56;;;27.65;35.94
71559;BME280;59382;43.852;25.952;2023-05-16T12:16:38;100643.19;;;27.68;35.55
71559;BME280;59382;43.852;25.952;2023-05-16T12:19:04;100638.63;;;27.72;35.47
71559;BME280;59382;43.852;25.952;2023-05-16T12:21:31;100632.09;;;27.68;35.53
71559;BME280;59382;43.852;25.952;2023-05-16T12:23:57;100643.50;;;27.75;35.29
71559;BME280;59382;43.852;25.952;2023-05-16T12:26:31;100640.41;;;27.77;34.99
71559;BME280;59382;43.852;25.952;2023-05-16T12:29:01;100624.41;;;27.74;34.97
71559;BME280;59382;43.852;25.952;2023-05-16T12:31:38;100619.69;;;27.74;35.00
71559;BME280;59382;43.852;25.952;2023-05-16T12:34:14;100627.53;;;27.72;34.97
71559;BME280;59382;43.852;25.952;2023-05-16T12:36:40;100627.22;;;27.65;35.04
71559;BME280;59382;43.852;25.952;2023-05-16T12:39:10;100617.41;;;27.59;35.10
71559;BME280;59382;43.852;25.952;2023-05-16T12:41:40;100627.84;;;27.62;35.20
71559;BME280;59382;43.852;25.952;2023-05-16T12:44:13;100627.34;;;27.60;35.26
71559;BME280;59382;43.852;25.952;2023-05-16T12:46:42;100624.44;;;27.65;35.15
71559;BME280;59382;43.852;25.952;2023-05-16T12:49:08;100622.97;;;27.59;35.49
71559;BME280;59382;43.852;25.952;2023-05-16T12:51:34;100644.66;;;27.66;35.14
71559;BME280;59382;43.852;25.952;2023-05-16T12:54:07;100629.31;;;27.68;34.99
71559;BME280;59382;43.852;25.952;2023-05-16T12:56:33;100613.50;;;27.60;35.07
71559;BME280;59382;43.852;25.952;2023-05-16T12:58:59;100636.03;;;27.67;34.85
71559;BME280;59382;43.852;25.952;2023-05-16T13:01:24;100631.28;;;27.68;34.83
71559;BME280;59382;43.852;25.952;2023-05-16T13:03:50;100627.53;;;27.72;34.79
71559;BME280;59382;43.852;25.952;2023-05-16T13:06:16;100626.56;;;27.68;34.93
71559;BME280;59382;43.852;25.952;2023-05-16T13:08:41;100628.53;;;27.76;34.66
71559;BME280;59382;43.852;25.952;2023-05-16T13:11:07;100630.94;;;27.69;34.83